ウランバートル の空港の天気 - METARとTAF

チンギスハーン国際空港 ( ZMUB / ULN ) - モンゴル ウランバートル
飛行場実況気象(Metar)
観測時間04/30 22:30 +08 (04/30 14:30 UTC)
風向・風速静穏 0m/s
視程10km以上
天気現象
なし
気温9℃
湿度32%
気圧1012hPa
METARZMUB 301430Z 00000MPS CAVOK 09/M07 Q1012 NOSIG RMK QFE652.0 34
過去の天気等 Google飛行場航空写真 Wunderground天気予報

過去48時間のMETAR

飛行場予報(TAF)
発表時間: 4/30 18:35 +08 (4/30 10:35 UTC)
予報対象時間: 30日20時 +08 ~ 2日2時 +08
風向・風速不定 2m/s
視程10km以上
全天の4割程度の雲 雲底高度 1,010m
30日23時 +08 ~ 1日1時 +08 に徐々に
風向・風速南南東 5m/s
1日5時 +08 ~ 1日7時 +08 に徐々に
風向・風速南 7m/s
1日10時 +08 ~ 1日12時 +08 に徐々に
風向・風速南西 9m/s
天気現象低いDS
1日18時 +08 ~ 1日20時 +08 に徐々に
風向・風速北西 5m/s
天気現象運行に影響にある天気現象が終了
1日21時 +08 ~ 1日23時 +08 に徐々に
風向・風速不定 2m/s
TAF ZMUB 301035Z 3012/0118 VRB02MPS 9999 SCT033 TN03/3022Z TX25/0107Z
BECMG 3015/3017 16005MPS
BECMG 3021/3023 18007MPS
BECMG 0102/0104 23009MPS DRDS
BECMG 0110/0112 31005MPS NSW
BECMG 0113/0115 VRB02MPS